Time;durP1;ratioP1;P1;durP2;ratioP2;P2;SDS_P1;SDS_P2;PMS_P1;PMS_P2;Temp;Humidity;BMP_temperature;BMP_pressure;BME280_temperature;BME280_humidity;BME280_pressure;Samples;Min_cycle;Max_cycle;Signal;HPM_P1;HPM_P2
2022/01/11 00:00:46;;;;;;;35.43;24.30;;;1.80;99.90;;;0.09;100.00;99129.09;5036650;28;20441;-69
2022/01/11 00:03:18;;;;;;;40.40;23.83;;;1.80;99.90;;;0.13;100.00;99154.47;5053534;28;20453;-69
2022/01/11 00:05:51;;;;;;;33.70;22.63;;;1.70;99.90;;;0.21;100.00;99153.88;5054427;28;20450;-70
2022/01/11 00:08:28;;;;;;;32.87;22.13;;;1.80;99.90;;;0.16;100.00;99157.88;5053569;28;20430;-69
2022/01/11 00:11:02;;;;;;;31.73;21.90;;;1.80;99.90;;;0.25;100.00;99160.66;5036436;28;20850;-71
2022/01/11 00:13:30;;;;;;;36.37;21.37;;;1.80;99.90;;;0.28;100.00;99154.22;5019430;28;20932;-70
2022/01/11 00:15:57;;;;;;;28.90;20.63;;;1.80;99.90;;;0.41;100.00;99151.47;5036236;28;20521;-70
2022/01/11 00:18:26;;;;;;;30.73;21.20;;;1.90;99.90;;;0.53;100.00;99147.81;5036181;28;20488;-72
2022/01/11 00:20:54;;;;;;;27.13;20.30;;;2.10;99.90;;;0.62;99.77;99151.56;5053455;28;20438;-70
2022/01/11 00:26:06;;;;;;;26.40;17.33;;;2.20;99.90;;;0.73;98.82;99153.34;5036285;28;20461;-69
2022/01/11 00:28:33;;;;;;;30.47;17.97;;;2.20;99.90;;;0.73;98.00;99153.34;5053014;28;20444;-70
2022/01/11 00:31:02;;;;;;;24.23;15.33;;;2.20;99.90;;;0.75;97.73;99163.84;5052840;28;20465;-71
2022/01/11 00:33:36;;;;;;;23.80;16.47;;;2.30;99.70;;;0.72;97.99;99164.09;5053617;28;20538;-70
2022/01/11 00:36:06;;;;;;;25.60;16.70;;;2.30;99.00;;;0.72;97.89;99170.28;5053877;28;20434;-70
2022/01/11 00:38:36;;;;;;;24.17;15.27;;;2.30;98.90;;;0.63;98.04;99163.03;5056736;28;20447;-70
2022/01/11 00:41:06;;;;;;;22.57;14.80;;;2.30;99.20;;;0.69;97.64;99176.66;5055893;28;20918;-70
2022/01/11 00:43:36;;;;;;;20.93;14.90;;;2.30;98.80;;;0.79;97.62;99179.44;5040485;28;20525;-70
2022/01/11 00:46:04;;;;;;;22.13;14.40;;;2.30;98.80;;;0.80;97.66;99180.28;5040321;28;20484;-69
2022/01/11 00:48:33;;;;;;;21.50;14.43;;;2.30;98.70;;;0.80;97.05;99172.31;5057916;28;20540;-70
2022/01/11 00:51:01;;;;;;;27.90;15.10;;;2.40;97.60;;;0.95;96.23;99184.38;5057168;28;20429;-69
2022/01/11 00:53:28;;;;;;;24.50;15.40;;;2.50;96.80;;;0.76;96.65;99190.31;5056395;28;20470;-70
2022/01/11 00:55:55;;;;;;;25.30;15.63;;;2.40;95.50;;;0.63;97.95;99190.47;5057008;28;20906;-70
2022/01/11 00:58:24;;;;;;;22.13;14.80;;;2.20;97.70;;;0.68;97.81;99182.09;5057118;28;20433;-69
2022/01/11 01:00:51;;;;;;;22.70;14.63;;;2.20;99.90;;;0.82;97.87;99189.81;5039006;28;20528;-70
2022/01/11 01:03:19;;;;;;;21.70;14.00;;;2.30;99.90;;;0.94;96.52;99188.00;5039366;28;20477;-69
2022/01/11 01:05:48;;;;;;;22.17;14.97;;;2.40;97.70;;;0.99;97.21;99200.94;5039311;28;20442;-70
2022/01/11 01:08:15;;;;;;;22.97;15.07;;;2.40;98.70;;;1.02;96.65;99199.81;5038911;28;20512;-69
2022/01/11 01:10:46;;;;;;;22.13;14.33;;;2.50;97.40;;;1.15;95.15;99205.00;5057064;28;20917;-69
2022/01/11 01:13:17;;;;;;;25.67;15.40;;;2.60;95.70;;;1.16;95.18;99204.03;5038695;28;20488;-69
2022/01/11 01:15:47;;;;;;;21.17;13.90;;;2.60;94.90;;;1.10;95.17;99200.88;5038311;28;20444;-71
2022/01/11 01:18:16;;;;;;;18.67;14.17;;;2.60;94.40;;;1.11;95.68;99197.25;5056627;28;20442;-69
2022/01/11 01:20:44;;;;;;;19.93;13.10;;;2.60;95.90;;;1.31;94.10;99205.44;5039038;28;20445;-70
2022/01/11 01:23:13;;;;;;;19.87;14.30;;;2.70;94.20;;;1.20;94.23;99202.81;5056633;28;20439;-70
2022/01/11 01:25:41;;;;;;;20.00;13.70;;;2.70;93.40;;;1.12;95.28;99198.13;5057292;28;20482;-70
2022/01/11 01:28:09;;;;;;;20.50;13.10;;;2.70;94.20;;;1.04;95.39;99203.19;5039177;28;20957;-70
2022/01/11 01:30:36;;;;;;;20.93;13.80;;;2.60;94.50;;;0.99;95.45;99203.59;5060687;28;20493;-70
2022/01/11 01:33:04;;;;;;;26.17;15.30;;;2.50;95.10;;;0.92;96.27;99199.72;5060106;28;20474;-69
2022/01/11 01:35:37;;;;;;;19.17;14.00;;;2.50;96.40;;;1.03;96.16;99202.38;5039879;28;20446;-71
2022/01/11 01:38:04;;;;;;;23.97;13.10;;;2.50;96.60;;;1.07;95.54;99203.81;5056463;28;20442;-71
2022/01/11 01:40:40;;;;;;;19.57;13.17;;;2.50;96.10;;;1.05;95.65;99200.44;5056223;28;20988;-69
2022/01/11 01:43:09;;;;;;;19.10;12.47;;;2.50;95.60;;;1.04;95.35;99209.38;5037889;28;20537;-71
2022/01/11 01:45:38;;;;;;;19.80;13.70;;;2.60;95.20;;;1.01;95.78;99214.97;5056078;28;20462;-71
2022/01/11 01:48:08;;;;;;;21.27;12.40;;;2.50;95.70;;;0.91;95.94;99211.34;5037671;28;21061;-71
2022/01/11 01:50:36;;;;;;;17.33;13.23;;;2.50;95.50;;;1.11;95.54;99213.22;5056123;28;20430;-72
2022/01/11 01:53:07;;;;;;;17.90;13.03;;;2.50;96.10;;;1.00;95.60;99213.28;5037683;28;20536;-70
2022/01/11 01:55:36;;;;;;;17.73;12.80;;;2.50;95.70;;;0.91;96.13;99208.69;5037546;28;20881;-70
2022/01/11 01:58:03;;;;;;;21.97;13.43;;;2.50;95.80;;;0.89;96.37;99216.78;5037875;28;20638;-71
2022/01/11 02:00:30;;;;;;;21.70;13.23;;;2.40;96.20;;;1.12;95.74;99211.41;5038342;28;21032;-70
2022/01/11 02:03:06;;;;;;;27.87;13.70;;;2.50;96.60;;;1.01;95.62;99220.28;5037587;28;20449;-70
2022/01/11 02:05:33;;;;;;;17.60;12.50;;;2.50;95.10;;;1.06;95.78;99215.44;5056200;28;20449;-70
2022/01/11 02:08:00;;;;;;;18.30;12.43;;;2.50;96.30;;;1.06;95.86;99212.75;5038151;28;20470;-70
2022/01/11 02:10:27;;;;;;;20.30;13.90;;;2.50;96.70;;;1.08;95.15;99218.81;5037513;28;20544;-68
2022/01/11 02:12:56;;;;;;;19.93;12.00;;;2.60;94.60;;;1.13;95.51;99219.25;5055366;28;20456;-68
2022/01/11 02:15:23;;;;;;;22.90;13.93;;;2.60;95.80;;;0.99;95.52;99216.91;5055123;28;20443;-69
2022/01/11 02:17:51;;;;;;;18.53;12.40;;;2.50;95.10;;;1.02;95.86;99210.47;5054992;28;20438;-68
2022/01/11 02:20:20;;;;;;;22.77;13.20;;;2.50;96.50;;;1.11;95.71;99215.88;5037691;28;20427;-68
2022/01/11 02:22:47;;;;;;;17.60;13.27;;;2.60;96.40;;;1.21;95.40;99220.47;5055195;28;20430;-69
2022/01/11 02:25:14;;;;;;;19.43;12.30;;;2.60;96.50;;;1.11;94.71;99226.53;5055107;28;20894;-68
2022/01/11 02:27:42;;;;;;;21.50;13.03;;;2.60;94.70;;;1.00;95.52;99229.25;5055046;28;20505;-68
2022/01/11 02:30:10;;;;;;;19.73;13.20;;;2.50;94.90;;;0.97;95.89;99229.47;5055259;28;20439;-69
2022/01/11 02:32:50;;;;;;;19.97;12.23;;;2.50;95.60;;;0.86;95.96;99230.34;5054943;28;20595;-69
2022/01/11 02:35:18;;;;;;;16.23;12.67;;;2.50;95.40;;;0.86;96.27;99238.31;5037306;28;20942;-69
2022/01/11 02:37:46;;;;;;;20.13;12.87;;;2.40;95.80;;;1.01;95.66;99228.28;5037789;28;20525;-69
2022/01/11 02:40:15;;;;;;;18.20;12.17;;;2.50;95.90;;;0.91;96.34;99235.31;5054879;28;21089;-69
2022/01/11 02:42:42;;;;;;;20.47;13.03;;;2.40;95.60;;;0.80;96.52;99229.00;5054930;28;20553;-69
2022/01/11 02:45:14;;;;;;;15.57;12.27;;;2.40;96.00;;;0.83;96.86;99228.78;5055104;28;20476;-69
2022/01/11 02:47:41;;;;;;;19.20;13.47;;;2.40;97.10;;;0.78;96.55;99209.66;5036530;28;20964;-70
2022/01/11 02:50:09;;;;;;;17.47;13.50;;;2.40;97.80;;;1.16;95.47;99233.31;5036742;28;20501;-70
2022/01/11 02:52:38;;;;;;;24.07;13.57;;;2.60;95.60;;;1.07;95.73;99234.91;5036684;28;20541;-69
2022/01/11 02:55:12;;;;;;;20.83;12.97;;;2.60;95.30;;;1.05;95.96;99226.19;5054593;28;20441;-69
2022/01/11 02:57:39;;;;;;;19.73;14.13;;;2.60;95.20;;;0.94;95.92;99230.59;5036380;28;20483;-69
2022/01/11 03:00:10;;;;;;;21.63;14.47;;;2.50;95.20;;;0.87;96.64;99226.72;5036558;28;20434;-69
2022/01/11 03:02:39;;;;;;;22.90;15.30;;;2.50;96.40;;;0.87;97.42;99236.53;5054670;28;20474;-68
2022/01/11 03:05:08;;;;;;;22.37;15.60;;;2.50;98.00;;;0.62;97.28;99186.13;5036103;28;20442;-68
2022/01/11 03:07:35;;;;;;;25.97;17.80;;;2.50;97.60;;;1.13;96.41;99229.91;5037181;28;20949;-68
2022/01/11 03:10:15;;;;;;;26.03;16.27;;;2.50;97.90;;;1.26;95.07;99228.91;5054187;28;20473;-68
2022/01/11 03:12:43;;;;;;;21.30;15.40;;;2.70;95.10;;;1.26;94.98;99226.25;5037206;28;20521;-68
2022/01/11 03:15:11;;;;;;;24.50;15.30;;;2.70;94.60;;;1.27;94.68;99231.47;5036164;28;20485;-69
2022/01/11 03:17:38;;;;;;;20.40;14.50;;;2.70;94.30;;;1.04;95.51;99230.69;5036229;28;20442;-69
2022/01/11 03:20:08;;;;;;;27.53;14.73;;;2.70;94.00;;;1.13;96.16;99235.25;5054508;28;20446;-69
2022/01/11 03:22:35;;;;;;;21.33;15.47;;;2.60;96.20;;;1.11;95.35;99229.19;5054001;28;20824;-69
2022/01/11 03:25:06;;;;;;;22.33;15.90;;;2.60;95.20;;;0.97;96.32;99234.78;5054000;28;20524;-69
2022/01/11 03:27:33;;;;;;;21.83;16.90;;;2.60;95.40;;;0.77;97.39;99223.94;5053915;28;20467;-69
2022/01/11 03:30:00;;;;;;;27.50;16.63;;;2.40;97.10;;;0.90;97.74;99238.94;5054487;28;20524;-69
2022/01/11 03:32:27;;;;;;;24.30;16.40;;;2.40;99.50;;;0.96;97.18;99233.97;5054267;28;20442;-70
2022/01/11 03:34:54;;;;;;;24.57;15.63;;;2.50;98.70;;;0.95;97.34;99234.94;5036176;28;20443;-69
2022/01/11 03:37:21;;;;;;;25.10;15.20;;;2.50;98.90;;;0.97;97.21;99232.13;5035786;28;20851;-69
2022/01/11 03:39:48;;;;;;;22.73;16.03;;;2.50;97.10;;;1.07;96.94;99235.75;5036739;28;20470;-69
2022/01/11 03:42:17;;;;;;;21.13;16.37;;;2.50;98.30;;;1.07;97.20;99241.06;5053479;28;20542;-69
2022/01/11 03:44:44;;;;;;;16.97;14.80;;;2.50;98.70;;;1.03;97.02;99244.09;5053796;28;20979;-69
2022/01/11 03:47:11;;;;;;;22.33;15.83;;;2.50;98.40;;;1.00;97.83;99247.88;5053883;28;20466;-69
2022/01/11 03:49:38;;;;;;;22.30;14.53;;;2.50;98.50;;;0.97;97.66;99237.44;5053948;28;20481;-69
2022/01/11 03:52:05;;;;;;;24.83;15.77;;;2.50;97.60;;;1.07;97.44;99241.06;5053579;28;20779;-69
2022/01/11 03:54:44;;;;;;;23.10;16.00;;;2.50;98.90;;;1.02;96.97;99243.28;5035336;28;20533;-70
2022/01/11 03:57:11;;;;;;;19.67;13.83;;;2.50;97.90;;;1.17;97.11;99245.66;5036516;28;20910;-69
2022/01/11 03:59:39;;;;;;;20.60;15.07;;;2.60;99.90;;;1.22;96.54;99243.47;5035429;28;20921;-69
2022/01/11 04:02:06;;;;;;;24.00;16.17;;;2.60;98.30;;;1.19;96.25;99243.72;5054230;28;20885;-69
2022/01/11 04:04:34;;;;;;;18.23;15.20;;;2.60;96.80;;;1.24;96.09;99246.84;5053387;28;20497;-69
2022/01/11 04:07:01;;;;;;;20.87;14.87;;;2.70;97.20;;;1.40;95.17;99257.09;5054004;28;20541;-69
2022/01/11 04:09:28;;;;;;;21.43;14.70;;;2.80;96.30;;;1.32;95.19;99243.56;5053552;28;20466;-68
2022/01/11 04:11:55;;;;;;;21.27;14.47;;;2.70;95.70;;;1.22;96.05;99246.97;5053743;28;20439;-68
2022/01/11 04:14:25;;;;;;;19.17;14.70;;;2.70;96.40;;;1.19;96.22;99243.72;5035777;28;20444;-70
2022/01/11 04:16:54;;;;;;;18.30;14.23;;;2.70;96.40;;;1.29;95.96;99242.00;5054006;28;21050;-69
2022/01/11 04:19:21;;;;;;;24.30;14.17;;;2.70;97.10;;;1.21;96.06;99257.75;5057554;28;20444;-69
2022/01/11 04:21:49;;;;;;;18.60;14.03;;;2.70;96.40;;;1.10;96.12;99255.97;5040457;28;20442;-68
2022/01/11 04:24:16;;;;;;;22.13;15.33;;;2.60;96.30;;;1.08;96.65;99244.59;5039814;28;20504;-69
2022/01/11 04:26:43;;;;;;;20.37;14.20;;;2.60;97.40;;;1.06;96.43;99255.34;5039146;28;20438;-69
2022/01/11 04:29:10;;;;;;;27.77;16.97;;;2.60;96.80;;;1.06;96.57;99260.69;5039322;28;20472;-69
2022/01/11 04:31:37;;;;;;;23.30;15.53;;;2.60;97.20;;;0.95;97.01;99258.88;5064821;28;20452;-69
2022/01/11 04:34:05;;;;;;;25.40;15.70;;;2.50;97.40;;;0.97;97.23;99258.75;5077229;28;20507;-69
2022/01/11 04:36:33;;;;;;;19.87;14.80;;;2.50;98.70;;;1.07;96.91;99257.03;5077351;28;20469;-69
2022/01/11 04:39:00;;;;;;;29.20;15.73;;;2.50;98.60;;;1.19;96.00;99259.69;5076782;28;20909;-69
2022/01/11 04:41:27;;;;;;;22.10;15.20;;;2.60;97.70;;;1.18;96.58;99260.66;5077307;28;20513;-68
2022/01/11 04:43:54;;;;;;;21.37;15.10;;;2.60;97.40;;;1.18;96.14;99263.31;5076958;28;20440;-69
2022/01/11 04:46:21;;;;;;;23.63;15.10;;;2.60;97.20;;;1.14;96.57;99265.38;5075636;28;20464;-70
2022/01/11 04:48:49;;;;;;;20.60;13.67;;;2.60;96.80;;;1.21;95.70;99265.72;5076490;28;21031;-69
2022/01/11 04:51:19;;;;;;;24.53;15.17;;;2.70;95.60;;;1.14;95.80;99268.03;5059321;28;20437;-69
2022/01/11 04:53:46;;;;;;;19.03;14.23;;;2.60;95.10;;;1.25;95.77;99270.69;5076989;28;20437;-69
2022/01/11 04:56:14;;;;;;;25.30;15.40;;;2.70;96.20;;;1.20;95.87;99267.53;5058690;28;20451;-69
2022/01/11 04:58:41;;;;;;;21.13;15.53;;;2.70;96.10;;;1.22;96.04;99270.09;5076660;28;20528;-69
2022/01/11 05:01:08;;;;;;;23.90;16.27;;;2.70;96.20;;;1.29;95.15;99270.44;5058390;28;20995;-69
2022/01/11 05:03:35;;;;;;;19.67;15.00;;;2.80;95.30;;;1.17;96.06;99265.13;5075277;28;20532;-70
2022/01/11 05:06:02;;;;;;;22.47;17.33;;;2.70;95.90;;;0.93;97.26;99273.28;5059137;28;20485;-69
2022/01/11 05:08:30;;;;;;;22.87;16.93;;;2.50;96.70;;;1.03;97.58;99282.22;5076252;28;20799;-70
2022/01/11 05:10:58;;;;;;;23.50;16.40;;;2.50;98.50;;;0.95;97.78;99274.00;5076236;28;20560;-70
2022/01/11 05:13:24;;;;;;;23.13;15.77;;;2.50;99.90;;;1.26;96.42;99298.16;5076564;28;20992;-69
2022/01/11 05:15:52;;;;;;;28.30;18.00;;;2.70;98.10;;;1.13;96.13;99288.47;5058851;28;20439;-69
2022/01/11 05:18:19;;;;;;;22.07;16.00;;;2.70;95.60;;;1.20;96.36;99290.66;5081494;28;20437;-69
2022/01/11 05:20:46;;;;;;;23.13;17.23;;;2.60;97.10;;;1.07;96.47;99291.66;5064362;28;20464;-69
2022/01/11 05:23:14;;;;;;;29.63;17.40;;;2.60;96.20;;;1.18;96.07;99288.13;5078573;28;20442;-68
2022/01/11 05:25:43;;;;;;;28.70;19.07;;;2.60;96.30;;;1.11;96.22;99285.09;5078525;28;20932;-68
2022/01/11 05:28:10;;;;;;;21.43;16.40;;;2.60;96.50;;;1.18;96.53;99289.94;5075634;28;20955;-68
2022/01/11 05:30:37;;;;;;;26.20;16.80;;;2.60;97.60;;;1.13;95.78;99291.16;5075375;28;20473;-70
2022/01/11 05:33:05;;;;;;;21.27;16.17;;;2.60;96.20;;;1.09;95.89;99286.22;5058138;28;20484;-70
2022/01/11 05:35:32;;;;;;;26.80;17.50;;;2.60;96.00;;;1.03;96.60;99282.22;5075919;28;20433;-69
2022/01/11 05:37:59;;;;;;;21.80;15.77;;;2.50;97.80;;;1.10;96.19;99294.06;5075736;28;20539;-69
2022/01/11 05:40:26;;;;;;;21.00;16.37;;;2.60;96.50;;;1.12;96.62;99301.94;5076283;28;20529;-71
2022/01/11 05:42:55;;;;;;;27.30;17.60;;;2.60;97.60;;;1.03;96.63;99308.84;5058771;28;20470;-71
2022/01/11 05:45:22;;;;;;;23.93;15.10;;;2.60;96.40;;;1.02;95.81;99315.13;5076248;28;20980;-71
2022/01/11 05:47:52;;;;;;;23.30;15.57;;;2.60;95.80;;;0.82;96.90;99309.56;5074361;28;20465;-71
2022/01/11 05:50:21;;;;;;;23.87;16.53;;;2.40;96.30;;;0.97;97.31;99325.28;5076322;28;20437;-71
2022/01/11 05:52:49;;;;;;;20.60;15.47;;;2.40;99.90;;;0.80;97.05;99323.97;5074325;28;20461;-71
2022/01/11 05:55:17;;;;;;;20.30;14.57;;;2.40;96.40;;;0.66;98.03;99327.69;5076395;28;20437;-71
2022/01/11 05:57:46;;;;;;;27.87;16.97;;;2.30;98.90;;;0.97;97.31;99335.94;5075581;28;20491;-71
2022/01/11 06:00:17;;;;;;;25.50;15.70;;;2.40;99.80;;;1.09;96.80;99340.28;5058361;28;20524;-81
2022/01/11 06:02:48;;;;;;;19.40;15.37;;;2.50;98.20;;;0.90;96.92;99342.72;5076435;28;20448;-74
2022/01/11 06:05:17;;;;;;;20.80;15.63;;;2.40;97.00;;;0.99;96.57;99339.34;5074415;28;20855;-77
2022/01/11 06:07:44;;;;;;;24.77;17.90;;;2.50;98.10;;;0.98;96.40;99343.81;5057985;28;20951;-78
2022/01/11 06:10:12;;;;;;;24.87;17.63;;;2.50;97.60;;;1.19;96.17;99342.22;5057398;28;20491;-74
2022/01/11 06:12:39;;;;;;;23.07;16.27;;;2.60;97.60;;;1.10;96.03;99349.97;5057614;28;20514;-78
2022/01/11 06:15:07;;;;;;;25.63;17.60;;;2.50;96.70;;;1.01;96.27;99352.50;5075521;28;20491;-78
2022/01/11 06:17:35;;;;;;;20.17;15.80;;;2.50;96.60;;;0.99;96.41;99347.34;5074185;28;20828;-78
2022/01/11 06:20:03;;;;;;;21.33;17.10;;;2.50;96.70;;;1.07;97.28;99352.88;5076592;28;20529;-77
2022/01/11 06:22:30;;;;;;;25.57;17.10;;;2.50;99.10;;;1.41;98.72;99357.34;5075546;28;20516;-77
2022/01/11 06:24:57;;;;;;;30.10;18.57;;;2.70;99.90;;;1.68;97.59;99348.06;5058452;28;20434;-78
2022/01/11 06:27:24;;;;;;;24.77;16.60;;;3.00;99.90;;;1.49;95.84;99348.72;5076223;28;20520;-80
2022/01/11 06:29:51;;;;;;;21.23;15.23;;;2.90;97.30;;;1.35;95.91;99369.31;5075748;28;20714;-77
2022/01/11 06:32:18;;;;;;;23.53;17.30;;;2.90;96.00;;;1.47;95.34;99356.00;5076533;28;20889;-78
2022/01/11 06:34:46;;;;;;;22.73;17.00;;;2.90;95.70;;;1.35;95.38;99364.00;5075367;28;20468;-81
2022/01/11 06:37:13;;;;;;;21.20;15.20;;;2.80;95.40;;;1.34;95.50;99356.97;5075202;28;20430;-80
2022/01/11 06:39:41;;;;;;;21.33;16.80;;;2.80;95.90;;;1.48;95.17;99376.34;5073268;28;20469;-79
2022/01/11 06:42:08;;;;;;;22.83;15.67;;;2.90;95.60;;;1.42;94.81;99367.84;5074772;28;20789;-80
2022/01/11 06:44:37;;;;;;;24.27;17.00;;;2.90;94.90;;;1.53;94.94;99368.81;5075244;28;20446;-79
2022/01/11 06:47:06;;;;;;;23.40;16.73;;;2.90;95.50;;;1.61;93.36;99371.72;5075192;28;20494;-81
2022/01/11 06:49:32;;;;;;;27.20;16.53;;;3.00;93.10;;;1.45;93.42;99376.59;5075216;28;20465;-81
2022/01/11 06:52:01;;;;;;;23.00;17.40;;;2.90;92.70;;;1.48;94.47;99376.34;5074965;28;20470;-79
2022/01/11 06:54:28;;;;;;;23.00;16.90;;;2.90;94.50;;;1.51;94.18;99376.91;5073262;28;20473;-79
2022/01/11 06:56:55;;;;;;;23.77;16.17;;;2.90;93.90;;;1.43;94.70;99379.34;5073010;28;20599;-79
2022/01/11 06:59:22;;;;;;;22.00;16.70;;;2.90;94.20;;;1.27;94.74;99385.06;5079608;28;20461;-77
2022/01/11 07:01:49;;;;;;;22.10;16.40;;;2.80;93.60;;;1.27;94.74;99393.03;5059384;28;20439;-78
2022/01/11 07:04:17;;;;;;;23.07;15.20;;;2.80;93.60;;;1.38;94.20;99395.69;5072099;28;20643;-79
2022/01/11 07:06:44;;;;;;;23.27;15.73;;;2.80;93.70;;;1.34;93.96;99396.94;5061205;28;22301;-78
2022/01/11 07:09:12;;;;;;;24.60;15.60;;;2.80;93.40;;;1.27;94.20;99399.22;5059191;28;20466;-78
2022/01/11 07:11:39;;;;;;;21.23;16.20;;;2.70;93.90;;;1.40;94.04;99401.75;5045696;28;20536;-77
2022/01/11 07:14:06;;;;;;;22.00;15.50;;;2.80;93.70;;;1.27;94.64;99401.03;5055643;28;20446;-78
2022/01/11 07:16:33;;;;;;;20.80;14.77;;;2.70;94.00;;;1.09;95.16;99387.38;5053119;28;20511;-77
2022/01/11 07:19:01;;;;;;;19.33;14.70;;;2.70;94.80;;;1.32;94.25;99396.22;5057243;28;20517;-78
2022/01/11 07:21:28;;;;;;;20.83;14.73;;;2.70;94.00;;;1.23;94.27;99404.91;5071900;28;21020;-75
2022/01/11 07:23:55;;;;;;;21.93;14.80;;;2.70;93.60;;;1.22;93.90;99411.22;5073884;28;20465;-78
2022/01/11 07:26:23;;;;;;;20.20;15.30;;;2.70;93.40;;;1.24;94.61;99407.47;5056162;28;20528;-79
2022/01/11 07:28:50;;;;;;;19.23;15.37;;;2.60;94.50;;;1.13;94.76;99410.13;5059336;28;20792;-77
2022/01/11 07:31:17;;;;;;;20.00;14.77;;;2.60;94.20;;;1.18;94.92;99418.59;5074113;28;20533;-79
2022/01/11 07:33:44;;;;;;;20.43;15.30;;;2.60;94.80;;;1.20;95.21;99424.63;5056224;28;20466;-80
2022/01/11 07:36:11;;;;;;;20.83;15.70;;;2.70;94.40;;;1.07;95.67;99432.75;5074039;28;20425;-80
2022/01/11 07:38:38;;;;;;;21.63;14.97;;;2.60;94.60;;;1.19;95.38;99435.41;5072680;28;20469;-81
2022/01/11 07:41:05;;;;;;;20.77;16.10;;;2.60;95.00;;;1.32;94.00;99441.47;5074025;28;20520;-80
2022/01/11 07:43:33;;;;;;;20.57;14.17;;;2.80;93.20;;;1.41;94.01;99439.91;5072438;28;20984;-80
2022/01/11 07:46:01;;;;;;;21.13;14.40;;;2.80;93.60;;;1.45;93.46;99438.69;5055486;28;20439;-79
2022/01/11 07:48:27;;;;;;;18.67;13.07;;;2.90;93.30;;;1.49;92.68;99449.94;5055699;28;21040;-79
2022/01/11 07:50:56;;;;;;;18.33;14.10;;;2.90;92.20;;;1.59;92.17;99452.72;5074327;28;20439;-77
2022/01/11 07:53:23;;;;;;;20.87;14.33;;;3.00;91.60;;;1.56;91.39;99453.81;5055875;28;20539;-78
2022/01/11 07:55:50;;;;;;;15.43;11.60;;;3.10;90.70;;;1.49;91.88;99449.94;5073695;28;20445;-79
2022/01/11 07:58:17;;;;;;;13.77;10.80;;;3.00;91.30;;;1.64;89.10;99451.38;5072707;28;20443;-78
2022/01/11 08:00:45;;;;;;;17.93;11.60;;;3.10;87.50;;;1.68;89.71;99452.81;5074285;28;20841;-78
2022/01/11 08:03:12;;;;;;;13.57;10.67;;;3.10;88.40;;;1.58;89.50;99440.38;5056127;28;20529;-79
2022/01/11 08:05:40;;;;;;;17.13;11.03;;;3.20;87.80;;;1.72;89.00;99452.56;5075674;28;20455;-73
2022/01/11 08:08:07;;;;;;;13.57;11.80;;;3.20;87.20;;;1.90;88.52;99458.25;5069295;28;20453;-76
2022/01/11 08:10:34;;;;;;;15.27;10.90;;;3.30;86.80;;;1.87;87.87;99462.00;5072779;28;20572;-77
2022/01/11 08:13:08;;;;;;;12.83;10.20;;;3.40;85.30;;;1.92;87.32;99469.63;5073851;28;20842;-75
2022/01/11 08:15:35;;;;;;;14.90;10.50;;;3.40;84.20;;;1.90;87.12;99472.44;5073621;28;20426;-76
2022/01/11 08:18:04;;;;;;;14.00;9.20;;;3.40;83.80;;;2.06;83.75;99473.84;5072301;28;20830;-74
2022/01/11 08:20:31;;;;;;;11.20;9.20;;;3.50;81.00;;;1.96;85.14;99477.25;5072760;28;20483;-75
2022/01/11 08:22:58;;;;;;;12.67;9.10;;;3.50;81.70;;;1.78;84.18;99457.44;5073307;28;20524;-73
2022/01/11 08:25:26;;;;;;;11.47;8.67;;;3.40;80.50;;;1.91;85.00;99471.47;5073346;28;20518;-77
2022/01/11 08:27:53;;;;;;;14.10;8.57;;;3.40;81.40;;;1.99;84.45;99470.84;5073423;28;20429;-75
2022/01/11 08:30:20;;;;;;;10.43;8.60;;;3.50;81.30;;;1.92;83.55;99470.50;5073081;28;20544;-74
2022/01/11 08:32:47;;;;;;;9.57;7.77;;;3.40;80.20;;;1.93;83.01;99472.19;5073324;28;20441;-73
2022/01/11 08:35:16;;;;;;;11.27;9.23;;;3.50;80.30;;;1.93;83.16;99472.19;5073637;28;20524;-73
2022/01/11 08:37:43;;;;;;;12.70;9.20;;;3.40;80.00;;;1.92;84.13;99464.31;5072941;28;20787;-75
2022/01/11 08:40:12;;;;;;;14.50;7.97;;;3.50;80.60;;;2.06;82.87;99468.53;5073351;28;20524;-73
2022/01/11 08:42:39;;;;;;;10.10;7.93;;;3.50;80.10;;;2.09;83.23;99465.59;5072005;28;20436;-73
2022/01/11 08:45:08;;;;;;;13.80;8.53;;;3.60;80.10;;;2.23;82.13;99469.78;5073649;28;20524;-73
2022/01/11 08:47:35;;;;;;;11.17;8.40;;;3.60;79.40;;;2.23;81.00;99457.31;5073524;28;20442;-73
2022/01/11 08:50:06;;;;;;;10.47;8.10;;;3.80;78.80;;;2.30;81.85;99470.13;5057209;28;20497;-73
2022/01/11 08:52:35;;;;;;;13.73;9.13;;;3.80;78.90;;;2.37;81.74;99466.00;5075441;28;20448;-72
2022/01/11 08:55:02;;;;;;;11.43;8.77;;;3.80;78.90;;;2.44;81.13;99469.00;5062929;28;20465;-71
2022/01/11 08:57:29;;;;;;;17.97;8.87;;;3.90;78.60;;;2.59;80.05;99473.06;5091559;28;20461;-73
2022/01/11 08:59:56;;;;;;;12.73;9.07;;;4.00;78.00;;;2.49;79.72;99472.13;5073363;28;20441;-73
2022/01/11 09:02:23;;;;;;;11.23;8.00;;;4.00;77.70;;;2.68;79.96;99476.78;5076814;28;20520;-72
2022/01/11 09:04:52;;;;;;;12.93;9.47;;;4.10;77.50;;;2.60;79.78;99476.56;5066473;28;20442;-73
2022/01/11 09:07:19;;;;;;;12.03;8.73;;;4.10;77.30;;;2.65;79.28;99477.03;5077877;28;20528;-73
2022/01/11 09:09:48;;;;;;;11.27;8.97;;;4.10;77.10;;;2.79;78.81;99468.69;5078096;28;20462;-74
2022/01/11 09:12:16;;;;;;;10.73;8.40;;;4.20;76.90;;;2.92;78.52;99467.66;5078929;28;20437;-74
2022/01/11 09:14:43;;;;;;;13.70;9.03;;;4.30;76.70;;;2.85;78.43;99471.84;5086629;28;20444;-74
2022/01/11 09:17:11;;;;;;;11.73;8.18;;;4.40;76.30;;;2.95;77.81;99475.41;5096877;28;20455;-87
2022/01/11 09:19:38;;;;;;;8.83;7.30;;;4.40;76.10;;;2.94;78.04;99460.38;5088467;28;20194;-79
2022/01/11 09:22:06;;;;;;;10.73;7.60;;;4.50;76.10;;;3.03;77.63;99475.63;5084952;28;20436;-78
2022/01/11 09:24:34;;;;;;;8.90;7.00;;;4.50;75.50;;;3.17;76.81;99476.25;5079303;28;20441;-77
2022/01/11 09:27:05;;;;;;;8.53;6.80;;;4.60;75.30;;;3.22;76.85;99476.69;5076941;28;20818;-67
2022/01/11 09:29:36;;;;;;;8.87;7.80;;;4.60;74.60;;;3.24;75.86;99480.09;5078026;28;20515;-79
2022/01/11 09:32:05;;;;;;;9.73;6.93;;;4.70;74.60;;;3.12;75.88;99484.66;5076753;28;20434;-77
2022/01/11 09:34:37;;;;;;;8.03;7.10;;;4.60;73.40;;;3.25;75.75;99481.78;5076674;28;20433;-75
2022/01/11 09:37:04;;;;;;;8.37;7.47;;;4.60;73.80;;;3.32;76.03;99485.63;5076229;28;20441;-76
2022/01/11 09:39:31;;;;;;;8.20;6.30;;;4.70;73.90;;;3.27;74.98;99490.53;5058236;28;20540;-77
2022/01/11 09:41:59;;;;;;;8.17;6.57;;;4.70;72.60;;;3.18;75.45;99496.66;5074634;28;20437;-75
2022/01/11 09:44:28;;;;;;;8.23;6.00;;;4.70;73.00;;;3.17;74.61;99486.94;5074775;28;20465;-74
2022/01/11 09:46:55;;;;;;;8.23;5.90;;;4.60;72.50;;;3.24;75.26;99493.44;5076186;28;20908;-75
2022/01/11 09:49:22;;;;;;;8.00;6.10;;;4.70;72.50;;;3.32;74.70;99485.63;5063326;28;20521;-77
2022/01/11 09:51:50;;;;;;;7.90;5.57;;;4.70;72.40;;;3.40;74.33;99482.28;5081288;28;20456;-77
2022/01/11 09:54:19;;;;;;;6.77;5.00;;;4.90;72.40;;;3.42;73.95;99484.84;5083136;28;20461;-76
2022/01/11 09:56:47;;;;;;;7.83;5.80;;;5.00;71.90;;;3.35;72.62;99463.16;5078048;28;20839;-75
2022/01/11 09:59:16;;;;;;;6.07;4.93;;;5.00;70.80;;;3.50;71.77;99476.97;5075841;28;20994;-76
2022/01/11 10:01:44;;;;;;;5.37;3.77;;;5.00;69.60;;;3.39;71.91;99489.44;5075829;28;20438;-76
2022/01/11 10:04:14;;;;;;;7.03;4.27;;;4.90;68.90;;;3.24;72.20;99494.31;5058224;28;20473;-78
2022/01/11 10:06:43;;;;;;;7.60;4.40;;;4.80;69.30;;;3.15;73.33;99496.91;5078569;28;20434;-78
2022/01/11 10:09:16;;;;;;;4.33;3.90;;;4.70;69.90;;;3.10;73.43;99502.66;5076494;28;20425;-70
2022/01/11 10:11:46;;;;;;;4.67;3.87;;;4.70;70.00;;;3.08;73.78;99500.09;5075465;28;20433;-76
2022/01/11 10:14:23;;;;;;;4.77;4.07;;;4.60;69.90;;;3.07;74.59;99493.06;5074062;28;21015;-73
2022/01/11 10:17:05;;;;;;;6.53;3.83;;;4.60;70.90;;;3.06;72.19;99486.03;5057855;28;20474;-70
2022/01/11 10:19:33;;;;;;;4.43;3.87;;;4.60;68.50;;;3.02;72.26;99503.31;5074858;28;20476;-75
2022/01/11 10:22:04;;;;;;;6.23;4.30;;;4.60;68.70;;;3.04;71.08;99482.66;5074059;28;20437;-75
2022/01/11 10:24:35;;;;;;;5.10;3.80;;;4.60;67.90;;;3.16;70.89;99495.94;5075152;28;20813;-67
2022/01/11 10:27:06;;;;;;;5.23;4.73;;;4.70;67.80;;;3.30;70.64;99498.28;5074439;28;20828;-79